sensor_id;sensor_type;location;lat;lon;timestamp;P1;durP1;ratioP1;P2;durP2;ratioP2
77581;SDS011;66726;52.388;9.986;2023-05-13T00:00:38;8.93;;;8.20;;
77581;SDS011;66726;52.388;9.986;2023-05-13T00:03:10;9.53;;;7.27;;
77581;SDS011;66726;52.388;9.986;2023-05-13T00:05:42;12.60;;;7.77;;
77581;SDS011;66726;52.388;9.986;2023-05-13T00:08:14;9.07;;;7.77;;
77581;SDS011;66726;52.388;9.986;2023-05-13T00:10:48;10.67;;;6.67;;
77581;SDS011;66726;52.388;9.986;2023-05-13T00:13:20;8.00;;;7.30;;
77581;SDS011;66726;52.388;9.986;2023-05-13T00:15:51;6.27;;;5.60;;
77581;SDS011;66726;52.388;9.986;2023-05-13T00:18:23;6.50;;;5.93;;
77581;SDS011;66726;52.388;9.986;2023-05-13T00:20:55;9.13;;;6.83;;
77581;SDS011;66726;52.388;9.986;2023-05-13T00:23:27;6.37;;;5.70;;
77581;SDS011;66726;52.388;9.986;2023-05-13T00:26:00;6.13;;;5.00;;
77581;SDS011;66726;52.388;9.986;2023-05-13T00:28:33;5.23;;;4.40;;
77581;SDS011;66726;52.388;9.986;2023-05-13T00:31:05;6.13;;;5.27;;
77581;SDS011;66726;52.388;9.986;2023-05-13T00:33:37;7.73;;;4.80;;
77581;SDS011;66726;52.388;9.986;2023-05-13T00:36:09;5.43;;;4.93;;
77581;SDS011;66726;52.388;9.986;2023-05-13T00:38:41;5.70;;;4.87;;
77581;SDS011;66726;52.388;9.986;2023-05-13T00:41:14;7.73;;;5.03;;
77581;SDS011;66726;52.388;9.986;2023-05-13T00:43:46;6.20;;;4.93;;
77581;SDS011;66726;52.388;9.986;2023-05-13T00:46:19;5.60;;;5.00;;
77581;SDS011;66726;52.388;9.986;2023-05-13T00:48:52;8.83;;;4.87;;
77581;SDS011;66726;52.388;9.986;2023-05-13T00:51:24;7.70;;;5.13;;
77581;SDS011;66726;52.388;9.986;2023-05-13T00:53:58;9.00;;;5.07;;
77581;SDS011;66726;52.388;9.986;2023-05-13T00:56:31;5.80;;;5.10;;
77581;SDS011;66726;52.388;9.986;2023-05-13T00:59:06;7.50;;;5.30;;
77581;SDS011;66726;52.388;9.986;2023-05-13T01:01:40;7.53;;;5.40;;
77581;SDS011;66726;52.388;9.986;2023-05-13T01:04:23;6.43;;;5.13;;
77581;SDS011;66726;52.388;9.986;2023-05-13T01:07:05;6.93;;;5.30;;
77581;SDS011;66726;52.388;9.986;2023-05-13T01:09:50;6.87;;;5.43;;
77581;SDS011;66726;52.388;9.986;2023-05-13T01:12:47;5.73;;;5.17;;
77581;SDS011;66726;52.388;9.986;2023-05-13T01:15:29;6.10;;;5.50;;
77581;SDS011;66726;52.388;9.986;2023-05-13T01:18:06;5.90;;;5.30;;
77581;SDS011;66726;52.388;9.986;2023-05-13T01:20:45;7.47;;;5.27;;
77581;SDS011;66726;52.388;9.986;2023-05-13T01:23:20;6.70;;;6.03;;
77581;SDS011;66726;52.388;9.986;2023-05-13T01:25:52;7.10;;;5.90;;
77581;SDS011;66726;52.388;9.986;2023-05-13T01:28:24;7.17;;;5.73;;
77581;SDS011;66726;52.388;9.986;2023-05-13T01:30:56;7.13;;;5.80;;
77581;SDS011;66726;52.388;9.986;2023-05-13T01:33:28;8.10;;;6.00;;
77581;SDS011;66726;52.388;9.986;2023-05-13T01:36:01;7.00;;;5.97;;
77581;SDS011;66726;52.388;9.986;2023-05-13T01:38:36;5.93;;;5.17;;
77581;SDS011;66726;52.388;9.986;2023-05-13T01:41:10;6.13;;;5.40;;
77581;SDS011;66726;52.388;9.986;2023-05-13T01:43:42;6.17;;;5.37;;
77581;SDS011;66726;52.388;9.986;2023-05-13T01:46:14;7.47;;;5.43;;
77581;SDS011;66726;52.388;9.986;2023-05-13T01:48:46;7.10;;;5.13;;
77581;SDS011;66726;52.388;9.986;2023-05-13T01:51:19;9.53;;;5.40;;
77581;SDS011;66726;52.388;9.986;2023-05-13T01:53:52;7.33;;;5.30;;
77581;SDS011;66726;52.388;9.986;2023-05-13T01:56:24;7.53;;;5.83;;
77581;SDS011;66726;52.388;9.986;2023-05-13T01:58:56;7.50;;;5.73;;
77581;SDS011;66726;52.388;9.986;2023-05-13T02:01:28;6.77;;;5.87;;
77581;SDS011;66726;52.388;9.986;2023-05-13T02:04:00;7.30;;;5.60;;
77581;SDS011;66726;52.388;9.986;2023-05-13T02:06:32;7.93;;;5.57;;
77581;SDS011;66726;52.388;9.986;2023-05-13T02:09:06;6.83;;;5.70;;
77581;SDS011;66726;52.388;9.986;2023-05-13T02:11:38;8.17;;;5.60;;
77581;SDS011;66726;52.388;9.986;2023-05-13T02:14:09;7.40;;;6.00;;
77581;SDS011;66726;52.388;9.986;2023-05-13T02:16:41;6.97;;;5.70;;
77581;SDS011;66726;52.388;9.986;2023-05-13T02:19:13;6.33;;;5.73;;
77581;SDS011;66726;52.388;9.986;2023-05-13T02:21:46;6.43;;;5.80;;
77581;SDS011;66726;52.388;9.986;2023-05-13T02:24:19;7.60;;;5.60;;
77581;SDS011;66726;52.388;9.986;2023-05-13T02:26:51;6.60;;;5.93;;
77581;SDS011;66726;52.388;9.986;2023-05-13T02:29:23;6.17;;;5.57;;
77581;SDS011;66726;52.388;9.986;2023-05-13T02:31:56;7.43;;;6.50;;
77581;SDS011;66726;52.388;9.986;2023-05-13T02:34:28;7.37;;;5.90;;
77581;SDS011;66726;52.388;9.986;2023-05-13T02:37:01;6.40;;;5.80;;
77581;SDS011;66726;52.388;9.986;2023-05-13T02:39:35;7.07;;;5.87;;
77581;SDS011;66726;52.388;9.986;2023-05-13T02:42:06;6.43;;;5.63;;
77581;SDS011;66726;52.388;9.986;2023-05-13T02:44:38;8.63;;;6.13;;
77581;SDS011;66726;52.388;9.986;2023-05-13T02:47:11;6.33;;;5.73;;
77581;SDS011;66726;52.388;9.986;2023-05-13T02:49:42;8.50;;;6.00;;
77581;SDS011;66726;52.388;9.986;2023-05-13T02:52:14;10.33;;;6.30;;
77581;SDS011;66726;52.388;9.986;2023-05-13T02:54:47;7.33;;;6.23;;
77581;SDS011;66726;52.388;9.986;2023-05-13T02:57:19;9.60;;;5.77;;
77581;SDS011;66726;52.388;9.986;2023-05-13T02:59:51;6.97;;;5.63;;
77581;SDS011;66726;52.388;9.986;2023-05-13T03:02:23;8.87;;;5.83;;
77581;SDS011;66726;52.388;9.986;2023-05-13T03:04:55;7.73;;;6.53;;
77581;SDS011;66726;52.388;9.986;2023-05-13T03:07:26;6.83;;;6.07;;
77581;SDS011;66726;52.388;9.986;2023-05-13T03:10:00;8.80;;;5.90;;
77581;SDS011;66726;52.388;9.986;2023-05-13T03:12:31;7.70;;;6.33;;
77581;SDS011;66726;52.388;9.986;2023-05-13T03:15:03;7.20;;;6.17;;
77581;SDS011;66726;52.388;9.986;2023-05-13T03:17:37;9.70;;;6.13;;
77581;SDS011;66726;52.388;9.986;2023-05-13T03:20:10;6.47;;;5.73;;
77581;SDS011;66726;52.388;9.986;2023-05-13T03:22:42;7.00;;;6.27;;
77581;SDS011;66726;52.388;9.986;2023-05-13T03:25:16;6.10;;;5.57;;
77581;SDS011;66726;52.388;9.986;2023-05-13T03:27:47;9.03;;;6.03;;
77581;SDS011;66726;52.388;9.986;2023-05-13T03:30:20;6.90;;;6.03;;
77581;SDS011;66726;52.388;9.986;2023-05-13T03:32:52;8.57;;;6.27;;
77581;SDS011;66726;52.388;9.986;2023-05-13T03:35:24;7.17;;;6.47;;
77581;SDS011;66726;52.388;9.986;2023-05-13T03:37:56;6.10;;;5.50;;
77581;SDS011;66726;52.388;9.986;2023-05-13T03:40:29;10.97;;;6.60;;
77581;SDS011;66726;52.388;9.986;2023-05-13T03:43:01;8.83;;;6.37;;
77581;SDS011;66726;52.388;9.986;2023-05-13T03:45:33;7.33;;;6.53;;
77581;SDS011;66726;52.388;9.986;2023-05-13T03:48:05;8.10;;;6.17;;
77581;SDS011;66726;52.388;9.986;2023-05-13T03:50:37;7.57;;;5.80;;
77581;SDS011;66726;52.388;9.986;2023-05-13T03:53:09;10.37;;;6.20;;
77581;SDS011;66726;52.388;9.986;2023-05-13T03:55:43;6.90;;;6.00;;
77581;SDS011;66726;52.388;9.986;2023-05-13T03:58:15;8.03;;;6.43;;
77581;SDS011;66726;52.388;9.986;2023-05-13T04:00:48;7.90;;;6.10;;
77581;SDS011;66726;52.388;9.986;2023-05-13T04:03:19;6.93;;;6.00;;
77581;SDS011;66726;52.388;9.986;2023-05-13T04:05:51;7.77;;;6.30;;
77581;SDS011;66726;52.388;9.986;2023-05-13T04:08:23;6.53;;;5.93;;
77581;SDS011;66726;52.388;9.986;2023-05-13T04:10:56;7.83;;;6.23;;
77581;SDS011;66726;52.388;9.986;2023-05-13T04:13:28;8.47;;;6.07;;
77581;SDS011;66726;52.388;9.986;2023-05-13T04:16:00;7.93;;;6.73;;
77581;SDS011;66726;52.388;9.986;2023-05-13T04:18:32;7.17;;;6.13;;
77581;SDS011;66726;52.388;9.986;2023-05-13T04:21:05;7.57;;;6.83;;
77581;SDS011;66726;52.388;9.986;2023-05-13T04:23:37;7.87;;;6.40;;
77581;SDS011;66726;52.388;9.986;2023-05-13T04:26:11;7.03;;;6.37;;
77581;SDS011;66726;52.388;9.986;2023-05-13T04:28:42;7.70;;;6.20;;
77581;SDS011;66726;52.388;9.986;2023-05-13T04:31:14;12.27;;;6.57;;
77581;SDS011;66726;52.388;9.986;2023-05-13T04:33:47;8.57;;;6.07;;
77581;SDS011;66726;52.388;9.986;2023-05-13T04:36:18;8.30;;;6.20;;
77581;SDS011;66726;52.388;9.986;2023-05-13T04:38:50;8.60;;;5.97;;
77581;SDS011;66726;52.388;9.986;2023-05-13T04:41:23;6.83;;;5.57;;
77581;SDS011;66726;52.388;9.986;2023-05-13T04:43:55;6.63;;;6.03;;
77581;SDS011;66726;52.388;9.986;2023-05-13T04:46:27;9.60;;;6.00;;
77581;SDS011;66726;52.388;9.986;2023-05-13T04:48:59;7.57;;;6.23;;
77581;SDS011;66726;52.388;9.986;2023-05-13T04:51:31;11.30;;;5.77;;
77581;SDS011;66726;52.388;9.986;2023-05-13T04:54:04;10.57;;;6.67;;
77581;SDS011;66726;52.388;9.986;2023-05-13T04:56:37;7.23;;;6.27;;
77581;SDS011;66726;52.388;9.986;2023-05-13T04:59:09;6.57;;;5.60;;
77581;SDS011;66726;52.388;9.986;2023-05-13T05:01:41;9.20;;;5.90;;
77581;SDS011;66726;52.388;9.986;2023-05-13T05:04:14;6.93;;;6.20;;
77581;SDS011;66726;52.388;9.986;2023-05-13T05:06:46;6.70;;;5.97;;
77581;SDS011;66726;52.388;9.986;2023-05-13T05:09:18;8.20;;;6.20;;
77581;SDS011;66726;52.388;9.986;2023-05-13T05:11:51;10.67;;;6.20;;
77581;SDS011;66726;52.388;9.986;2023-05-13T05:14:22;9.27;;;6.23;;
77581;SDS011;66726;52.388;9.986;2023-05-13T05:16:54;8.83;;;5.90;;
77581;SDS011;66726;52.388;9.986;2023-05-13T05:19:26;8.13;;;6.03;;
77581;SDS011;66726;52.388;9.986;2023-05-13T05:21:58;7.50;;;5.50;;
77581;SDS011;66726;52.388;9.986;2023-05-13T05:24:30;7.57;;;5.47;;
77581;SDS011;66726;52.388;9.986;2023-05-13T05:27:03;7.00;;;5.60;;
77581;SDS011;66726;52.388;9.986;2023-05-13T05:29:35;7.43;;;5.97;;
77581;SDS011;66726;52.388;9.986;2023-05-13T05:32:08;6.37;;;5.10;;
77581;SDS011;66726;52.388;9.986;2023-05-13T05:34:39;6.37;;;5.70;;
77581;SDS011;66726;52.388;9.986;2023-05-13T05:37:11;5.97;;;5.40;;
77581;SDS011;66726;52.388;9.986;2023-05-13T05:39:43;7.53;;;5.50;;
77581;SDS011;66726;52.388;9.986;2023-05-13T05:42:16;8.93;;;5.90;;
77581;SDS011;66726;52.388;9.986;2023-05-13T05:44:48;11.07;;;6.07;;
77581;SDS011;66726;52.388;9.986;2023-05-13T05:47:20;10.70;;;5.90;;
77581;SDS011;66726;52.388;9.986;2023-05-13T05:49:52;7.67;;;6.10;;
77581;SDS011;66726;52.388;9.986;2023-05-13T05:52:24;7.67;;;5.67;;
77581;SDS011;66726;52.388;9.986;2023-05-13T05:54:56;7.70;;;6.03;;
77581;SDS011;66726;52.388;9.986;2023-05-13T05:57:29;9.03;;;6.13;;
77581;SDS011;66726;52.388;9.986;2023-05-13T06:00:01;10.37;;;5.83;;
77581;SDS011;66726;52.388;9.986;2023-05-13T06:02:35;7.80;;;6.10;;
77581;SDS011;66726;52.388;9.986;2023-05-13T06:05:07;9.50;;;6.10;;
77581;SDS011;66726;52.388;9.986;2023-05-13T06:07:39;9.23;;;5.77;;
77581;SDS011;66726;52.388;9.986;2023-05-13T06:10:11;6.77;;;6.00;;
77581;SDS011;66726;52.388;9.986;2023-05-13T06:12:44;10.63;;;5.93;;
77581;SDS011;66726;52.388;9.986;2023-05-13T06:15:17;7.37;;;5.37;;
77581;SDS011;66726;52.388;9.986;2023-05-13T06:17:49;6.80;;;5.50;;
77581;SDS011;66726;52.388;9.986;2023-05-13T06:20:21;9.00;;;5.80;;
77581;SDS011;66726;52.388;9.986;2023-05-13T06:22:53;10.47;;;5.30;;
77581;SDS011;66726;52.388;9.986;2023-05-13T06:25:25;6.93;;;5.27;;
77581;SDS011;66726;52.388;9.986;2023-05-13T06:27:58;6.00;;;5.40;;
77581;SDS011;66726;52.388;9.986;2023-05-13T06:30:31;11.13;;;5.90;;
77581;SDS011;66726;52.388;9.986;2023-05-13T06:33:03;11.27;;;5.20;;
77581;SDS011;66726;52.388;9.986;2023-05-13T06:35:38;9.87;;;5.27;;
77581;SDS011;66726;52.388;9.986;2023-05-13T06:38:13;9.03;;;5.20;;
77581;SDS011;66726;52.388;9.986;2023-05-13T06:40:44;5.60;;;5.10;;
77581;SDS011;66726;52.388;9.986;2023-05-13T06:43:18;6.47;;;4.90;;
77581;SDS011;66726;52.388;9.986;2023-05-13T06:45:50;10.47;;;5.80;;
77581;SDS011;66726;52.388;9.986;2023-05-13T06:48:22;9.70;;;5.13;;
77581;SDS011;66726;52.388;9.986;2023-05-13T06:50:54;7.37;;;5.27;;
77581;SDS011;66726;52.388;9.986;2023-05-13T06:53:26;10.03;;;5.23;;
77581;SDS011;66726;52.388;9.986;2023-05-13T06:55:58;6.77;;;5.00;;
77581;SDS011;66726;52.388;9.986;2023-05-13T06:58:31;8.30;;;5.50;;
77581;SDS011;66726;52.388;9.986;2023-05-13T07:01:03;6.27;;;5.33;;
77581;SDS011;66726;52.388;9.986;2023-05-13T07:03:36;6.47;;;5.17;;
77581;SDS011;66726;52.388;9.986;2023-05-13T07:06:08;8.37;;;5.97;;
77581;SDS011;66726;52.388;9.986;2023-05-13T07:08:41;7.93;;;5.50;;
77581;SDS011;66726;52.388;9.986;2023-05-13T07:11:12;9.27;;;5.67;;
77581;SDS011;66726;52.388;9.986;2023-05-13T07:13:46;8.90;;;5.87;;
77581;SDS011;66726;52.388;9.986;2023-05-13T07:16:18;11.97;;;5.73;;
77581;SDS011;66726;52.388;9.986;2023-05-13T07:18:50;9.27;;;5.77;;
77581;SDS011;66726;52.388;9.986;2023-05-13T07:21:22;7.40;;;5.80;;
77581;SDS011;66726;52.388;9.986;2023-05-13T07:23:55;7.97;;;5.57;;
77581;SDS011;66726;52.388;9.986;2023-05-13T07:26:30;7.07;;;5.80;;
77581;SDS011;66726;52.388;9.986;2023-05-13T07:29:03;6.00;;;5.37;;
77581;SDS011;66726;52.388;9.986;2023-05-13T07:31:35;10.23;;;6.00;;
77581;SDS011;66726;52.388;9.986;2023-05-13T07:34:07;10.40;;;9.30;;
77581;SDS011;66726;52.388;9.986;2023-05-13T07:36:39;9.50;;;6.30;;
77581;SDS011;66726;52.388;9.986;2023-05-13T07:39:11;12.47;;;6.27;;
77581;SDS011;66726;52.388;9.986;2023-05-13T07:41:43;9.57;;;6.70;;
77581;SDS011;66726;52.388;9.986;2023-05-13T07:44:17;8.07;;;5.87;;
77581;SDS011;66726;52.388;9.986;2023-05-13T07:46:49;9.50;;;6.10;;
77581;SDS011;66726;52.388;9.986;2023-05-13T07:49:21;8.70;;;6.43;;
77581;SDS011;66726;52.388;9.986;2023-05-13T07:51:52;10.17;;;7.03;;
77581;SDS011;66726;52.388;9.986;2023-05-13T07:54:24;9.50;;;6.57;;
77581;SDS011;66726;52.388;9.986;2023-05-13T07:56:58;10.07;;;6.53;;
77581;SDS011;66726;52.388;9.986;2023-05-13T07:59:32;9.43;;;6.63;;
77581;SDS011;66726;52.388;9.986;2023-05-13T08:02:04;7.30;;;6.40;;
77581;SDS011;66726;52.388;9.986;2023-05-13T08:04:36;8.03;;;6.33;;
77581;SDS011;66726;52.388;9.986;2023-05-13T08:07:08;9.37;;;6.53;;
77581;SDS011;66726;52.388;9.986;2023-05-13T08:09:40;7.27;;;6.57;;
77581;SDS011;66726;52.388;9.986;2023-05-13T08:12:12;8.70;;;6.13;;
77581;SDS011;66726;52.388;9.986;2023-05-13T08:14:45;8.57;;;6.40;;
77581;SDS011;66726;52.388;9.986;2023-05-13T08:17:17;10.13;;;6.77;;
77581;SDS011;66726;52.388;9.986;2023-05-13T08:19:49;9.77;;;6.53;;
77581;SDS011;66726;52.388;9.986;2023-05-13T08:22:21;9.97;;;6.83;;
77581;SDS011;66726;52.388;9.986;2023-05-13T08:24:54;8.80;;;7.07;;
77581;SDS011;66726;52.388;9.986;2023-05-13T08:27:26;8.73;;;7.20;;
77581;SDS011;66726;52.388;9.986;2023-05-13T08:29:59;9.03;;;6.70;;
77581;SDS011;66726;52.388;9.986;2023-05-13T08:32:31;9.30;;;7.23;;
77581;SDS011;66726;52.388;9.986;2023-05-13T08:35:06;8.33;;;7.33;;
77581;SDS011;66726;52.388;9.986;2023-05-13T08:37:39;9.00;;;6.93;;
77581;SDS011;66726;52.388;9.986;2023-05-13T08:40:10;9.17;;;7.33;;
77581;SDS011;66726;52.388;9.986;2023-05-13T08:42:44;8.93;;;5.87;;
77581;SDS011;66726;52.388;9.986;2023-05-13T08:45:22;11.10;;;7.43;;
77581;SDS011;66726;52.388;9.986;2023-05-13T08:48:00;9.70;;;7.53;;
77581;SDS011;66726;52.388;9.986;2023-05-13T08:50:34;9.83;;;6.03;;
77581;SDS011;66726;52.388;9.986;2023-05-13T08:53:09;9.87;;;5.90;;
77581;SDS011;66726;52.388;9.986;2023-05-13T08:55:42;8.33;;;6.40;;
77581;SDS011;66726;52.388;9.986;2023-05-13T08:58:14;8.73;;;7.37;;
77581;SDS011;66726;52.388;9.986;2023-05-13T09:00:50;9.87;;;6.40;;
77581;SDS011;66726;52.388;9.986;2023-05-13T09:03:23;6.70;;;5.80;;
77581;SDS011;66726;52.388;9.986;2023-05-13T09:06:00;6.30;;;5.70;;
77581;SDS011;66726;52.388;9.986;2023-05-13T09:08:35;10.27;;;6.07;;
77581;SDS011;66726;52.388;9.986;2023-05-13T09:11:07;6.53;;;5.93;;
77581;SDS011;66726;52.388;9.986;2023-05-13T09:13:43;9.20;;;5.43;;
77581;SDS011;66726;52.388;9.986;2023-05-13T09:16:27;7.53;;;5.47;;
77581;SDS011;66726;52.388;9.986;2023-05-13T09:19:04;11.53;;;5.83;;
77581;SDS011;66726;52.388;9.986;2023-05-13T09:21:36;7.60;;;5.40;;
77581;SDS011;66726;52.388;9.986;2023-05-13T09:24:12;7.70;;;5.67;;
77581;SDS011;66726;52.388;9.986;2023-05-13T09:26:47;6.53;;;5.37;;
77581;SDS011;66726;52.388;9.986;2023-05-13T09:29:22;10.10;;;6.07;;
77581;SDS011;66726;52.388;9.986;2023-05-13T09:31:58;7.33;;;5.97;;
77581;SDS011;66726;52.388;9.986;2023-05-13T09:34:38;7.47;;;5.13;;
77581;SDS011;66726;52.388;9.986;2023-05-13T09:37:16;9.10;;;6.30;;
77581;SDS011;66726;52.388;9.986;2023-05-13T09:39:51;12.20;;;6.23;;
77581;SDS011;66726;52.388;9.986;2023-05-13T09:42:23;7.07;;;6.37;;
77581;SDS011;66726;52.388;9.986;2023-05-13T09:44:58;13.90;;;7.83;;
77581;SDS011;66726;52.388;9.986;2023-05-13T09:47:37;11.77;;;8.53;;
77581;SDS011;66726;52.388;9.986;2023-05-13T09:50:10;14.47;;;10.60;;
77581;SDS011;66726;52.388;9.986;2023-05-13T09:52:42;13.07;;;8.57;;
77581;SDS011;66726;52.388;9.986;2023-05-13T09:55:15;13.53;;;11.13;;
77581;SDS011;66726;52.388;9.986;2023-05-13T09:57:48;17.97;;;13.63;;
77581;SDS011;66726;52.388;9.986;2023-05-13T10:00:21;14.93;;;13.50;;
77581;SDS011;66726;52.388;9.986;2023-05-13T10:02:59;13.17;;;11.90;;
77581;SDS011;66726;52.388;9.986;2023-05-13T10:05:33;17.80;;;16.30;;
77581;SDS011;66726;52.388;9.986;2023-05-13T10:08:06;23.00;;;20.40;;
77581;SDS011;66726;52.388;9.986;2023-05-13T10:10:41;24.10;;;21.03;;
77581;SDS011;66726;52.388;9.986;2023-05-13T10:13:15;25.80;;;22.90;;
77581;SDS011;66726;52.388;9.986;2023-05-13T10:15:51;26.17;;;23.47;;
77581;SDS011;66726;52.388;9.986;2023-05-13T10:18:25;39.27;;;33.37;;
77581;SDS011;66726;52.388;9.986;2023-05-13T10:20:57;30.20;;;26.60;;
77581;SDS011;66726;52.388;9.986;2023-05-13T10:23:31;38.13;;;34.33;;
77581;SDS011;66726;52.388;9.986;2023-05-13T10:26:03;43.00;;;38.67;;
77581;SDS011;66726;52.388;9.986;2023-05-13T10:28:37;37.90;;;32.77;;
77581;SDS011;66726;52.388;9.986;2023-05-13T10:31:11;50.20;;;35.97;;
77581;SDS011;66726;52.388;9.986;2023-05-13T10:33:45;71.47;;;53.73;;
77581;SDS011;66726;52.388;9.986;2023-05-13T10:36:37;59.13;;;53.10;;
77581;SDS011;66726;52.388;9.986;2023-05-13T10:39:28;53.00;;;43.77;;
77581;SDS011;66726;52.388;9.986;2023-05-13T10:42:29;45.87;;;41.47;;
77581;SDS011;66726;52.388;9.986;2023-05-13T10:45:09;62.40;;;53.73;;
77581;SDS011;66726;52.388;9.986;2023-05-13T10:47:48;120.17;;;94.37;;
77581;SDS011;66726;52.388;9.986;2023-05-13T10:50:24;64.20;;;58.13;;
77581;SDS011;66726;52.388;9.986;2023-05-13T10:52:57;176.10;;;140.37;;
77581;SDS011;66726;52.388;9.986;2023-05-13T10:55:35;163.43;;;126.87;;
77581;SDS011;66726;52.388;9.986;2023-05-13T10:58:13;195.83;;;137.90;;
77581;SDS011;66726;52.388;9.986;2023-05-13T11:00:47;250.70;;;170.27;;
77581;SDS011;66726;52.388;9.986;2023-05-13T11:03:28;342.77;;;244.03;;
77581;SDS011;66726;52.388;9.986;2023-05-13T11:06:13;384.70;;;250.07;;
77581;SDS011;66726;52.388;9.986;2023-05-13T11:08:47;419.23;;;256.10;;
77581;SDS011;66726;52.388;9.986;2023-05-13T11:11:26;506.43;;;299.53;;
77581;SDS011;66726;52.388;9.986;2023-05-13T11:14:05;521.43;;;285.90;;
77581;SDS011;66726;52.388;9.986;2023-05-13T11:16:49;714.50;;;373.93;;
77581;SDS011;66726;52.388;9.986;2023-05-13T11:19:35;532.67;;;317.27;;
77581;SDS011;66726;52.388;9.986;2023-05-13T11:22:15;813.73;;;424.23;;
77581;SDS011;66726;52.388;9.986;2023-05-13T11:25:03;853.27;;;454.03;;
77581;SDS011;66726;52.388;9.986;2023-05-13T11:27:37;744.63;;;415.60;;
77581;SDS011;66726;52.388;9.986;2023-05-13T11:30:20;418.43;;;287.90;;
77581;SDS011;66726;52.388;9.986;2023-05-13T11:32:53;1025.80;;;515.10;;
77581;SDS011;66726;52.388;9.986;2023-05-13T11:35:28;1063.93;;;527.80;;
77581;SDS011;66726;52.388;9.986;2023-05-13T11:38:03;1364.13;;;597.37;;
77581;SDS011;66726;52.388;9.986;2023-05-13T11:40:35;1440.57;;;638.03;;
77581;SDS011;66726;52.388;9.986;2023-05-13T11:43:07;1951.50;;;711.83;;
77581;SDS011;66726;52.388;9.986;2023-05-13T11:45:45;1689.63;;;697.27;;
77581;SDS011;66726;52.388;9.986;2023-05-13T11:48:20;1500.57;;;642.50;;
77581;SDS011;66726;52.388;9.986;2023-05-13T11:50:52;1941.87;;;749.03;;
77581;SDS011;66726;52.388;9.986;2023-05-13T11:53:28;1999.90;;;789.57;;
77581;SDS011;66726;52.388;9.986;2023-05-13T11:56:07;1950.37;;;713.47;;
77581;SDS011;66726;52.388;9.986;2023-05-13T11:58:39;1822.07;;;718.30;;
77581;SDS011;66726;52.388;9.986;2023-05-13T12:01:12;1786.13;;;705.27;;
77581;SDS011;66726;52.388;9.986;2023-05-13T12:03:44;1999.90;;;833.87;;
77581;SDS011;66726;52.388;9.986;2023-05-13T12:06:17;1999.90;;;818.90;;
77581;SDS011;66726;52.388;9.986;2023-05-13T12:08:50;1999.90;;;868.00;;
77581;SDS011;66726;52.388;9.986;2023-05-13T12:11:22;1999.90;;;942.43;;
77581;SDS011;66726;52.388;9.986;2023-05-13T12:13:53;1999.90;;;924.47;;
77581;SDS011;66726;52.388;9.986;2023-05-13T12:16:25;1999.90;;;929.07;;
77581;SDS011;66726;52.388;9.986;2023-05-13T12:18:58;1999.90;;;915.50;;
77581;SDS011;66726;52.388;9.986;2023-05-13T12:21:32;1999.90;;;917.20;;
77581;SDS011;66726;52.388;9.986;2023-05-13T12:24:16;1999.90;;;972.73;;
77581;SDS011;66726;52.388;9.986;2023-05-13T12:26:50;1999.90;;;931.40;;
77581;SDS011;66726;52.388;9.986;2023-05-13T12:29:37;1999.90;;;959.63;;
77581;SDS011;66726;52.388;9.986;2023-05-13T12:32:09;1999.90;;;985.30;;
77581;SDS011;66726;52.388;9.986;2023-05-13T12:34:47;1999.90;;;966.10;;
77581;SDS011;66726;52.388;9.986;2023-05-13T12:37:23;1999.90;;;999.90;;
77581;SDS011;66726;52.388;9.986;2023-05-13T12:40:09;1999.90;;;999.90;;
77581;SDS011;66726;52.388;9.986;2023-05-13T12:42:44;1999.90;;;977.22;;
77581;SDS011;66726;52.388;9.986;2023-05-13T12:45:16;1999.90;;;984.67;;
77581;SDS011;66726;52.388;9.986;2023-05-13T12:47:48;1999.90;;;961.60;;
77581;SDS011;66726;52.388;9.986;2023-05-13T12:50:21;1999.90;;;994.83;;
77581;SDS011;66726;52.388;9.986;2023-05-13T12:52:53;1999.90;;;994.37;;
77581;SDS011;66726;52.388;9.986;2023-05-13T12:55:28;1999.90;;;999.90;;
77581;SDS011;66726;52.388;9.986;2023-05-13T12:58:05;1999.90;;;989.55;;
77581;SDS011;66726;52.388;9.986;2023-05-13T13:00:39;1999.90;;;999.90;;
77581;SDS011;66726;52.388;9.986;2023-05-13T13:03:12;1999.90;;;999.90;;
77581;SDS011;66726;52.388;9.986;2023-05-13T13:05:46;1999.90;;;999.90;;
77581;SDS011;66726;52.388;9.986;2023-05-13T13:08:19;1999.90;;;999.90;;
77581;SDS011;66726;52.388;9.986;2023-05-13T13:10:52;1999.90;;;999.90;;
77581;SDS011;66726;52.388;9.986;2023-05-13T13:13:24;1999.90;;;999.90;;
77581;SDS011;66726;52.388;9.986;2023-05-13T13:15:56;1999.90;;;999.90;;
77581;SDS011;66726;52.388;9.986;2023-05-13T13:18:28;1999.90;;;999.90;;
77581;SDS011;66726;52.388;9.986;2023-05-13T13:21:00;1999.90;;;999.90;;
77581;SDS011;66726;52.388;9.986;2023-05-13T13:23:32;1999.90;;;999.90;;
77581;SDS011;66726;52.388;9.986;2023-05-13T13:26:06;1999.90;;;999.90;;
77581;SDS011;66726;52.388;9.986;2023-05-13T13:28:38;1999.90;;;999.90;;
77581;SDS011;66726;52.388;9.986;2023-05-13T13:31:10;1999.90;;;999.90;;
77581;SDS011;66726;52.388;9.986;2023-05-13T13:33:41;1999.90;;;999.90;;
77581;SDS011;66726;52.388;9.986;2023-05-13T13:36:13;1999.90;;;999.90;;
77581;SDS011;66726;52.388;9.986;2023-05-13T13:38:46;1999.90;;;999.90;;
77581;SDS011;66726;52.388;9.986;2023-05-13T13:41:19;1999.90;;;999.90;;
77581;SDS011;66726;52.388;9.986;2023-05-13T13:43:51;1999.90;;;999.90;;
77581;SDS011;66726;52.388;9.986;2023-05-13T13:46:23;1999.90;;;999.90;;
77581;SDS011;66726;52.388;9.986;2023-05-13T13:48:55;1999.90;;;999.90;;
77581;SDS011;66726;52.388;9.986;2023-05-13T13:51:35;1999.90;;;999.90;;
77581;SDS011;66726;52.388;9.986;2023-05-13T13:54:07;1999.90;;;999.90;;
77581;SDS011;66726;52.388;9.986;2023-05-13T13:56:41;1999.90;;;999.90;;
77581;SDS011;66726;52.388;9.986;2023-05-13T13:59:14;1999.90;;;999.90;;
77581;SDS011;66726;52.388;9.986;2023-05-13T14:01:46;1999.90;;;999.90;;
77581;SDS011;66726;52.388;9.986;2023-05-13T14:04:19;1999.90;;;999.90;;
77581;SDS011;66726;52.388;9.986;2023-05-13T14:06:53;1999.90;;;999.90;;
77581;SDS011;66726;52.388;9.986;2023-05-13T14:09:24;1999.90;;;999.90;;
77581;SDS011;66726;52.388;9.986;2023-05-13T14:11:59;1999.90;;;999.90;;
77581;SDS011;66726;52.388;9.986;2023-05-13T14:14:31;1999.90;;;999.90;;
77581;SDS011;66726;52.388;9.986;2023-05-13T14:17:03;1999.90;;;999.90;;
77581;SDS011;66726;52.388;9.986;2023-05-13T14:19:37;1999.90;;;999.90;;
77581;SDS011;66726;52.388;9.986;2023-05-13T14:22:09;1999.90;;;999.90;;
77581;SDS011;66726;52.388;9.986;2023-05-13T14:24:41;1999.90;;;999.90;;
77581;SDS011;66726;52.388;9.986;2023-05-13T14:27:14;1999.90;;;999.90;;
77581;SDS011;66726;52.388;9.986;2023-05-13T14:29:47;1999.90;;;999.90;;
77581;SDS011;66726;52.388;9.986;2023-05-13T14:32:19;1999.90;;;999.90;;
77581;SDS011;66726;52.388;9.986;2023-05-13T14:34:51;1999.90;;;999.90;;
77581;SDS011;66726;52.388;9.986;2023-05-13T14:37:23;1999.90;;;999.90;;
77581;SDS011;66726;52.388;9.986;2023-05-13T14:39:55;1999.90;;;999.90;;
77581;SDS011;66726;52.388;9.986;2023-05-13T14:42:28;1999.90;;;999.90;;
77581;SDS011;66726;52.388;9.986;2023-05-13T14:44:59;1999.90;;;999.90;;
77581;SDS011;66726;52.388;9.986;2023-05-13T14:47:33;1999.90;;;999.90;;
77581;SDS011;66726;52.388;9.986;2023-05-13T14:50:05;1999.90;;;999.90;;
77581;SDS011;66726;52.388;9.986;2023-05-13T14:52:40;1999.90;;;999.90;;
77581;SDS011;66726;52.388;9.986;2023-05-13T14:55:12;1999.90;;;999.90;;
77581;SDS011;66726;52.388;9.986;2023-05-13T14:57:45;1999.90;;;999.90;;
77581;SDS011;66726;52.388;9.986;2023-05-13T15:00:17;1999.90;;;999.90;;
77581;SDS011;66726;52.388;9.986;2023-05-13T15:02:49;1999.90;;;999.90;;